sensor_id;sensor_type;location;lat;lon;timestamp;temperature;humidity
76751;SHT31;65216;51.090;-115.352;2023-03-14T00:01:21;21.35;32.30
76751;SHT31;65216;51.090;-115.352;2023-03-14T00:03:50;21.34;32.35
76751;SHT31;65216;51.090;-115.352;2023-03-14T00:06:17;21.35;32.42
76751;SHT31;65216;51.090;-115.352;2023-03-14T00:08:48;21.36;32.58
76751;SHT31;65216;51.090;-115.352;2023-03-14T00:11:18;21.35;32.60
76751;SHT31;65216;51.090;-115.352;2023-03-14T00:13:47;21.35;32.62
76751;SHT31;65216;51.090;-115.352;2023-03-14T00:16:20;21.35;32.61
76751;SHT31;65216;51.090;-115.352;2023-03-14T00:18:50;21.34;32.66
76751;SHT31;65216;51.090;-115.352;2023-03-14T00:21:18;21.33;32.65
76751;SHT31;65216;51.090;-115.352;2023-03-14T00:23:51;21.33;32.63
76751;SHT31;65216;51.090;-115.352;2023-03-14T00:26:20;21.32;32.72
76751;SHT31;65216;51.090;-115.352;2023-03-14T00:28:50;21.33;32.77
76751;SHT31;65216;51.090;-115.352;2023-03-14T00:31:21;21.32;32.79
76751;SHT31;65216;51.090;-115.352;2023-03-14T00:33:55;21.32;32.89
76751;SHT31;65216;51.090;-115.352;2023-03-14T00:36:22;21.31;32.89
76751;SHT31;65216;51.090;-115.352;2023-03-14T00:38:53;21.30;32.93
76751;SHT31;65216;51.090;-115.352;2023-03-14T00:41:22;21.30;33.21
76751;SHT31;65216;51.090;-115.352;2023-03-14T00:43:50;21.29;33.00
76751;SHT31;65216;51.090;-115.352;2023-03-14T00:46:20;21.30;32.96
76751;SHT31;65216;51.090;-115.352;2023-03-14T00:48:48;21.30;32.99
76751;SHT31;65216;51.090;-115.352;2023-03-14T00:51:15;21.30;32.99
76751;SHT31;65216;51.090;-115.352;2023-03-14T00:53:45;21.29;32.99
76751;SHT31;65216;51.090;-115.352;2023-03-14T00:56:13;21.30;33.07
76751;SHT31;65216;51.090;-115.352;2023-03-14T00:58:41;21.28;33.05
76751;SHT31;65216;51.090;-115.352;2023-03-14T01:01:09;21.27;33.11
76751;SHT31;65216;51.090;-115.352;2023-03-14T01:03:40;21.28;33.20
76751;SHT31;65216;51.090;-115.352;2023-03-14T01:08:41;21.27;33.26
76751;SHT31;65216;51.090;-115.352;2023-03-14T01:11:10;21.27;33.19
76751;SHT31;65216;51.090;-115.352;2023-03-14T01:13:44;21.25;33.24
76751;SHT31;65216;51.090;-115.352;2023-03-14T01:16:12;21.25;33.27
76751;SHT31;65216;51.090;-115.352;2023-03-14T01:18:41;21.25;33.32
76751;SHT31;65216;51.090;-115.352;2023-03-14T01:21:14;21.24;33.37
76751;SHT31;65216;51.090;-115.352;2023-03-14T01:23:44;21.24;33.40
76751;SHT31;65216;51.090;-115.352;2023-03-14T01:26:12;21.24;33.40
76751;SHT31;65216;51.090;-115.352;2023-03-14T01:28:46;21.24;33.40
76751;SHT31;65216;51.090;-115.352;2023-03-14T01:31:15;21.24;33.44
76751;SHT31;65216;51.090;-115.352;2023-03-14T01:33:43;21.22;33.45
76751;SHT31;65216;51.090;-115.352;2023-03-14T01:36:16;21.21;33.38
76751;SHT31;65216;51.090;-115.352;2023-03-14T01:38:46;21.22;33.36
76751;SHT31;65216;51.090;-115.352;2023-03-14T01:41:15;21.20;33.40
76751;SHT31;65216;51.090;-115.352;2023-03-14T01:43:49;21.18;33.38
76751;SHT31;65216;51.090;-115.352;2023-03-14T01:46:22;21.18;33.35
76751;SHT31;65216;51.090;-115.352;2023-03-14T01:54:58;21.16;33.34
76751;SHT31;65216;51.090;-115.352;2023-03-14T01:57:33;21.14;33.41
76751;SHT31;65216;51.090;-115.352;2023-03-14T02:00:05;21.14;33.44
76751;SHT31;65216;51.090;-115.352;2023-03-14T02:02:44;21.15;33.48
76751;SHT31;65216;51.090;-115.352;2023-03-14T02:05:19;21.16;33.56
76751;SHT31;65216;51.090;-115.352;2023-03-14T02:07:55;21.15;33.56
76751;SHT31;65216;51.090;-115.352;2023-03-14T02:10:25;21.15;33.50
76751;SHT31;65216;51.090;-115.352;2023-03-14T02:13:00;21.16;33.50
76751;SHT31;65216;51.090;-115.352;2023-03-14T02:15:33;21.16;33.49
76751;SHT31;65216;51.090;-115.352;2023-03-14T02:18:02;21.16;33.67
76751;SHT31;65216;51.090;-115.352;2023-03-14T02:21:16;21.15;33.60
76751;SHT31;65216;51.090;-115.352;2023-03-14T02:24:09;21.15;33.60
76751;SHT31;65216;51.090;-115.352;2023-03-14T02:27:18;21.14;33.61
76751;SHT31;65216;51.090;-115.352;2023-03-14T02:32:40;21.13;33.67
76751;SHT31;65216;51.090;-115.352;2023-03-14T02:35:20;21.14;33.69
76751;SHT31;65216;51.090;-115.352;2023-03-14T02:37:55;21.12;33.70
76751;SHT31;65216;51.090;-115.352;2023-03-14T02:40:34;21.13;33.66
76751;SHT31;65216;51.090;-115.352;2023-03-14T02:43:07;21.13;33.66
76751;SHT31;65216;51.090;-115.352;2023-03-14T02:45:35;21.12;33.65
76751;SHT31;65216;51.090;-115.352;2023-03-14T02:50:50;21.11;33.63
76751;SHT31;65216;51.090;-115.352;2023-03-14T02:53:26;21.09;33.70
76751;SHT31;65216;51.090;-115.352;2023-03-14T02:55:58;21.10;33.66
76751;SHT31;65216;51.090;-115.352;2023-03-14T02:58:26;21.10;33.60
76751;SHT31;65216;51.090;-115.352;2023-03-14T03:00:57;21.09;33.65
76751;SHT31;65216;51.090;-115.352;2023-03-14T03:03:25;21.09;33.69
76751;SHT31;65216;51.090;-115.352;2023-03-14T03:05:53;21.09;33.69
76751;SHT31;65216;51.090;-115.352;2023-03-14T03:08:22;21.10;33.69
76751;SHT31;65216;51.090;-115.352;2023-03-14T03:10:52;21.10;33.65
76751;SHT31;65216;51.090;-115.352;2023-03-14T03:13:19;21.10;33.58
76751;SHT31;65216;51.090;-115.352;2023-03-14T03:15:46;21.11;33.54
76751;SHT31;65216;51.090;-115.352;2023-03-14T03:18:14;21.10;33.54
76751;SHT31;65216;51.090;-115.352;2023-03-14T03:20:41;21.09;33.55
76751;SHT31;65216;51.090;-115.352;2023-03-14T03:23:12;21.09;33.51
76751;SHT31;65216;51.090;-115.352;2023-03-14T03:25:50;21.11;33.49
76751;SHT31;65216;51.090;-115.352;2023-03-14T03:28:18;21.10;33.46
76751;SHT31;65216;51.090;-115.352;2023-03-14T03:30:46;21.10;33.44
76751;SHT31;65216;51.090;-115.352;2023-03-14T03:33:19;21.09;33.41
76751;SHT31;65216;51.090;-115.352;2023-03-14T03:35:52;21.09;33.38
76751;SHT31;65216;51.090;-115.352;2023-03-14T03:38:20;21.09;33.30
76751;SHT31;65216;51.090;-115.352;2023-03-14T03:40:47;21.10;33.26
76751;SHT31;65216;51.090;-115.352;2023-03-14T03:43:15;21.10;33.19
76751;SHT31;65216;51.090;-115.352;2023-03-14T03:45:43;21.10;33.12
76751;SHT31;65216;51.090;-115.352;2023-03-14T03:48:11;21.09;33.07
76751;SHT31;65216;51.090;-115.352;2023-03-14T03:50:43;21.11;33.08
76751;SHT31;65216;51.090;-115.352;2023-03-14T03:53:12;21.09;32.96
76751;SHT31;65216;51.090;-115.352;2023-03-14T03:55:42;21.09;32.86
76751;SHT31;65216;51.090;-115.352;2023-03-14T03:58:15;21.09;32.79
76751;SHT31;65216;51.090;-115.352;2023-03-14T04:00:42;21.09;32.67
76751;SHT31;65216;51.090;-115.352;2023-03-14T04:03:10;21.10;32.56
76751;SHT31;65216;51.090;-115.352;2023-03-14T04:05:40;21.09;32.47
76751;SHT31;65216;51.090;-115.352;2023-03-14T04:08:12;21.07;32.41
76751;SHT31;65216;51.090;-115.352;2023-03-14T04:10:42;21.07;32.26
76751;SHT31;65216;51.090;-115.352;2023-03-14T04:13:14;21.07;32.13
76751;SHT31;65216;51.090;-115.352;2023-03-14T04:15:44;21.07;32.02
76751;SHT31;65216;51.090;-115.352;2023-03-14T04:18:14;21.07;31.95
76751;SHT31;65216;51.090;-115.352;2023-03-14T04:20:44;21.05;31.92
76751;SHT31;65216;51.090;-115.352;2023-03-14T04:23:16;21.05;31.78
76751;SHT31;65216;51.090;-115.352;2023-03-14T04:25:44;21.05;31.67
76751;SHT31;65216;51.090;-115.352;2023-03-14T04:28:11;21.04;31.60
76751;SHT31;65216;51.090;-115.352;2023-03-14T04:30:38;21.03;31.50
76751;SHT31;65216;51.090;-115.352;2023-03-14T04:33:08;21.03;31.40
76751;SHT31;65216;51.090;-115.352;2023-03-14T04:35:45;21.03;31.38
76751;SHT31;65216;51.090;-115.352;2023-03-14T04:38:19;21.03;31.27
76751;SHT31;65216;51.090;-115.352;2023-03-14T04:40:46;21.02;31.20
76751;SHT31;65216;51.090;-115.352;2023-03-14T04:43:16;21.02;31.19
76751;SHT31;65216;51.090;-115.352;2023-03-14T04:45:44;21.02;31.08
76751;SHT31;65216;51.090;-115.352;2023-03-14T04:48:14;21.01;31.06
76751;SHT31;65216;51.090;-115.352;2023-03-14T04:50:41;21.00;31.03
76751;SHT31;65216;51.090;-115.352;2023-03-14T04:53:13;20.99;30.96
76751;SHT31;65216;51.090;-115.352;2023-03-14T04:55:48;20.99;31.01
76751;SHT31;65216;51.090;-115.352;2023-03-14T04:58:17;20.98;30.99
76751;SHT31;65216;51.090;-115.352;2023-03-14T05:00:45;20.97;31.00
76751;SHT31;65216;51.090;-115.352;2023-03-14T05:03:17;20.97;31.28
76751;SHT31;65216;51.090;-115.352;2023-03-14T05:05:48;20.95;31.46
76751;SHT31;65216;51.090;-115.352;2023-03-14T05:08:18;20.96;31.43
76751;SHT31;65216;51.090;-115.352;2023-03-14T05:10:51;20.96;31.59
76751;SHT31;65216;51.090;-115.352;2023-03-14T05:13:19;20.97;31.87
76751;SHT31;65216;51.090;-115.352;2023-03-14T05:15:50;20.95;31.88
76751;SHT31;65216;51.090;-115.352;2023-03-14T05:18:18;20.95;31.66
76751;SHT31;65216;51.090;-115.352;2023-03-14T05:20:50;20.95;31.60
76751;SHT31;65216;51.090;-115.352;2023-03-14T05:23:20;20.95;31.57
76751;SHT31;65216;51.090;-115.352;2023-03-14T05:25:53;20.95;31.54
76751;SHT31;65216;51.090;-115.352;2023-03-14T05:28:20;20.95;31.46
76751;SHT31;65216;51.090;-115.352;2023-03-14T05:30:49;20.94;31.37
76751;SHT31;65216;51.090;-115.352;2023-03-14T05:33:20;20.94;31.29
76751;SHT31;65216;51.090;-115.352;2023-03-14T05:35:49;20.94;31.22
76751;SHT31;65216;51.090;-115.352;2023-03-14T05:38:25;20.94;31.14
76751;SHT31;65216;51.090;-115.352;2023-03-14T05:40:51;20.92;31.29
76751;SHT31;65216;51.090;-115.352;2023-03-14T05:43:22;20.92;31.24
76751;SHT31;65216;51.090;-115.352;2023-03-14T05:45:52;20.91;31.19
76751;SHT31;65216;51.090;-115.352;2023-03-14T05:48:19;20.90;31.10
76751;SHT31;65216;51.090;-115.352;2023-03-14T05:50:47;20.90;31.07
76751;SHT31;65216;51.090;-115.352;2023-03-14T05:53:20;20.91;31.00
76751;SHT31;65216;51.090;-115.352;2023-03-14T05:55:54;20.91;30.90
76751;SHT31;65216;51.090;-115.352;2023-03-14T05:58:23;20.91;30.94
76751;SHT31;65216;51.090;-115.352;2023-03-14T06:00:53;20.93;31.02
76751;SHT31;65216;51.090;-115.352;2023-03-14T06:03:20;20.93;30.99
76751;SHT31;65216;51.090;-115.352;2023-03-14T06:05:50;20.92;30.92
76751;SHT31;65216;51.090;-115.352;2023-03-14T06:08:18;20.92;30.92
76751;SHT31;65216;51.090;-115.352;2023-03-14T06:10:45;20.92;30.92
76751;SHT31;65216;51.090;-115.352;2023-03-14T06:13:12;20.92;30.98
76751;SHT31;65216;51.090;-115.352;2023-03-14T06:15:41;20.91;30.94
76751;SHT31;65216;51.090;-115.352;2023-03-14T06:18:11;20.90;30.86
76751;SHT31;65216;51.090;-115.352;2023-03-14T06:20:39;20.89;30.80
76751;SHT31;65216;51.090;-115.352;2023-03-14T06:23:09;20.89;30.75
76751;SHT31;65216;51.090;-115.352;2023-03-14T06:25:36;20.88;30.72
76751;SHT31;65216;51.090;-115.352;2023-03-14T06:28:04;20.86;30.71
76751;SHT31;65216;51.090;-115.352;2023-03-14T06:30:31;20.85;30.68
76751;SHT31;65216;51.090;-115.352;2023-03-14T06:32:58;20.83;30.63
76751;SHT31;65216;51.090;-115.352;2023-03-14T06:35:29;20.80;30.59
76751;SHT31;65216;51.090;-115.352;2023-03-14T06:37:56;20.79;30.58
76751;SHT31;65216;51.090;-115.352;2023-03-14T06:40:23;20.78;30.49
76751;SHT31;65216;51.090;-115.352;2023-03-14T06:42:51;20.76;30.45
76751;SHT31;65216;51.090;-115.352;2023-03-14T06:45:22;20.73;30.46
76751;SHT31;65216;51.090;-115.352;2023-03-14T06:47:49;20.72;30.39
76751;SHT31;65216;51.090;-115.352;2023-03-14T06:50:16;20.70;30.40
76751;SHT31;65216;51.090;-115.352;2023-03-14T06:52:44;20.68;30.34
76751;SHT31;65216;51.090;-115.352;2023-03-14T06:55:16;20.66;30.32
76751;SHT31;65216;51.090;-115.352;2023-03-14T06:57:43;20.64;30.30
76751;SHT31;65216;51.090;-115.352;2023-03-14T07:00:13;20.64;30.26
76751;SHT31;65216;51.090;-115.352;2023-03-14T07:02:44;20.62;30.27
76751;SHT31;65216;51.090;-115.352;2023-03-14T07:05:14;20.62;30.20
76751;SHT31;65216;51.090;-115.352;2023-03-14T07:07:41;20.60;30.20
76751;SHT31;65216;51.090;-115.352;2023-03-14T07:10:11;20.58;30.17
76751;SHT31;65216;51.090;-115.352;2023-03-14T07:12:41;20.57;30.16
76751;SHT31;65216;51.090;-115.352;2023-03-14T07:15:14;20.56;30.10
76751;SHT31;65216;51.090;-115.352;2023-03-14T07:17:43;20.55;30.11
76751;SHT31;65216;51.090;-115.352;2023-03-14T07:20:14;20.54;30.10
76751;SHT31;65216;51.090;-115.352;2023-03-14T07:22:42;20.52;30.09
76751;SHT31;65216;51.090;-115.352;2023-03-14T07:25:09;20.50;30.04
76751;SHT31;65216;51.090;-115.352;2023-03-14T07:27:37;20.49;30.05
76751;SHT31;65216;51.090;-115.352;2023-03-14T07:30:13;20.47;30.04
76751;SHT31;65216;51.090;-115.352;2023-03-14T07:32:40;20.44;30.02
76751;SHT31;65216;51.090;-115.352;2023-03-14T07:35:09;20.42;30.05
76751;SHT31;65216;51.090;-115.352;2023-03-14T07:37:39;20.43;30.01
76751;SHT31;65216;51.090;-115.352;2023-03-14T07:40:07;20.42;30.00
76751;SHT31;65216;51.090;-115.352;2023-03-14T07:42:41;20.41;29.99
76751;SHT31;65216;51.090;-115.352;2023-03-14T07:45:09;20.40;30.00
76751;SHT31;65216;51.090;-115.352;2023-03-14T07:47:40;20.39;29.96
76751;SHT31;65216;51.090;-115.352;2023-03-14T07:50:07;20.37;29.99
76751;SHT31;65216;51.090;-115.352;2023-03-14T07:52:35;20.36;29.93
76751;SHT31;65216;51.090;-115.352;2023-03-14T07:55:06;20.35;29.95
76751;SHT31;65216;51.090;-115.352;2023-03-14T07:57:33;20.34;29.91
76751;SHT31;65216;51.090;-115.352;2023-03-14T08:00:04;20.34;29.91
76751;SHT31;65216;51.090;-115.352;2023-03-14T08:02:32;20.34;29.90
76751;SHT31;65216;51.090;-115.352;2023-03-14T08:05:02;20.31;29.89
76751;SHT31;65216;51.090;-115.352;2023-03-14T08:07:33;20.31;29.90
76751;SHT31;65216;51.090;-115.352;2023-03-14T08:10:00;20.32;29.87
76751;SHT31;65216;51.090;-115.352;2023-03-14T08:12:30;20.32;29.82
76751;SHT31;65216;51.090;-115.352;2023-03-14T08:14:58;20.32;29.83
76751;SHT31;65216;51.090;-115.352;2023-03-14T08:17:28;20.32;29.81
76751;SHT31;65216;51.090;-115.352;2023-03-14T08:20:01;20.32;29.79
76751;SHT31;65216;51.090;-115.352;2023-03-14T08:22:33;20.32;29.78
76751;SHT31;65216;51.090;-115.352;2023-03-14T08:25:03;20.33;29.77
76751;SHT31;65216;51.090;-115.352;2023-03-14T08:27:36;20.33;29.73
76751;SHT31;65216;51.090;-115.352;2023-03-14T08:30:07;20.33;29.70
76751;SHT31;65216;51.090;-115.352;2023-03-14T08:32:40;20.32;29.69
76751;SHT31;65216;51.090;-115.352;2023-03-14T08:35:08;20.33;29.65
76751;SHT31;65216;51.090;-115.352;2023-03-14T08:37:43;20.32;29.64
76751;SHT31;65216;51.090;-115.352;2023-03-14T08:40:13;20.34;29.59
76751;SHT31;65216;51.090;-115.352;2023-03-14T08:42:44;20.34;29.50
76751;SHT31;65216;51.090;-115.352;2023-03-14T08:45:16;20.33;29.44
76751;SHT31;65216;51.090;-115.352;2023-03-14T08:47:44;20.33;29.41
76751;SHT31;65216;51.090;-115.352;2023-03-14T08:50:11;20.33;29.38
76751;SHT31;65216;51.090;-115.352;2023-03-14T08:52:41;20.33;29.26
76751;SHT31;65216;51.090;-115.352;2023-03-14T08:55:12;20.34;29.19
76751;SHT31;65216;51.090;-115.352;2023-03-14T08:57:40;20.35;29.15
76751;SHT31;65216;51.090;-115.352;2023-03-14T09:00:07;20.34;29.07
76751;SHT31;65216;51.090;-115.352;2023-03-14T09:02:41;20.34;29.01
76751;SHT31;65216;51.090;-115.352;2023-03-14T09:05:13;20.34;28.92
76751;SHT31;65216;51.090;-115.352;2023-03-14T09:07:40;20.34;28.84
76751;SHT31;65216;51.090;-115.352;2023-03-14T09:10:13;20.35;28.80
76751;SHT31;65216;51.090;-115.352;2023-03-14T09:12:43;20.35;28.71
76751;SHT31;65216;51.090;-115.352;2023-03-14T09:15:10;20.34;28.65
76751;SHT31;65216;51.090;-115.352;2023-03-14T09:17:41;20.33;28.61
76751;SHT31;65216;51.090;-115.352;2023-03-14T09:20:12;20.32;28.60
76751;SHT31;65216;51.090;-115.352;2023-03-14T09:22:39;20.31;28.51
76751;SHT31;65216;51.090;-115.352;2023-03-14T09:25:10;20.31;28.49
76751;SHT31;65216;51.090;-115.352;2023-03-14T09:27:37;20.31;28.40
76751;SHT31;65216;51.090;-115.352;2023-03-14T09:30:08;20.30;28.36
76751;SHT31;65216;51.090;-115.352;2023-03-14T09:32:36;20.29;28.32
76751;SHT31;65216;51.090;-115.352;2023-03-14T09:35:06;20.29;28.30
76751;SHT31;65216;51.090;-115.352;2023-03-14T09:37:35;20.28;28.26
76751;SHT31;65216;51.090;-115.352;2023-03-14T09:40:03;20.28;28.21
76751;SHT31;65216;51.090;-115.352;2023-03-14T09:42:37;20.28;28.19
76751;SHT31;65216;51.090;-115.352;2023-03-14T09:45:11;20.27;28.12
76751;SHT31;65216;51.090;-115.352;2023-03-14T09:47:47;20.25;28.09
76751;SHT31;65216;51.090;-115.352;2023-03-14T09:50:15;20.25;28.07
76751;SHT31;65216;51.090;-115.352;2023-03-14T09:52:43;20.25;28.00
76751;SHT31;65216;51.090;-115.352;2023-03-14T09:55:23;20.24;27.97
76751;SHT31;65216;51.090;-115.352;2023-03-14T09:57:56;20.25;27.91
76751;SHT31;65216;51.090;-115.352;2023-03-14T10:00:30;20.26;27.83
76751;SHT31;65216;51.090;-115.352;2023-03-14T10:03:20;20.25;27.80
76751;SHT31;65216;51.090;-115.352;2023-03-14T10:06:08;20.22;27.79
76751;SHT31;65216;51.090;-115.352;2023-03-14T10:08:42;20.23;27.77
76751;SHT31;65216;51.090;-115.352;2023-03-14T10:11:16;20.22;27.71
76751;SHT31;65216;51.090;-115.352;2023-03-14T10:16:43;20.19;27.60
76751;SHT31;65216;51.090;-115.352;2023-03-14T10:19:13;20.18;27.54
76751;SHT31;65216;51.090;-115.352;2023-03-14T10:21:50;20.16;27.53
76751;SHT31;65216;51.090;-115.352;2023-03-14T10:27:01;20.14;27.41
76751;SHT31;65216;51.090;-115.352;2023-03-14T10:29:32;20.12;27.40
76751;SHT31;65216;51.090;-115.352;2023-03-14T10:32:02;20.13;27.35
76751;SHT31;65216;51.090;-115.352;2023-03-14T10:34:35;20.12;27.30
76751;SHT31;65216;51.090;-115.352;2023-03-14T10:37:24;20.11;27.25
76751;SHT31;65216;51.090;-115.352;2023-03-14T10:39:58;20.10;27.21
76751;SHT31;65216;51.090;-115.352;2023-03-14T10:42:34;20.10;27.17
76751;SHT31;65216;51.090;-115.352;2023-03-14T10:48:23;20.07;27.09
76751;SHT31;65216;51.090;-115.352;2023-03-14T10:56:58;20.03;26.97
76751;SHT31;65216;51.090;-115.352;2023-03-14T10:59:36;20.02;26.91
76751;SHT31;65216;51.090;-115.352;2023-03-14T11:05:15;20.00;26.82
76751;SHT31;65216;51.090;-115.352;2023-03-14T11:08:01;19.98;26.81
76751;SHT31;65216;51.090;-115.352;2023-03-14T11:10:53;19.99;26.75
76751;SHT31;65216;51.090;-115.352;2023-03-14T11:20:24;19.98;26.60
76751;SHT31;65216;51.090;-115.352;2023-03-14T11:22:59;19.99;26.60
76751;SHT31;65216;51.090;-115.352;2023-03-14T11:31:53;20.01;26.45
76751;SHT31;65216;51.090;-115.352;2023-03-14T11:34:27;20.00;26.39
76751;SHT31;65216;51.090;-115.352;2023-03-14T11:37:45;20.00;26.38
76751;SHT31;65216;51.090;-115.352;2023-03-14T11:42:58;19.99;26.30
76751;SHT31;65216;51.090;-115.352;2023-03-14T11:45:52;20.00;26.28
76751;SHT31;65216;51.090;-115.352;2023-03-14T11:48:36;20.00;26.24
76751;SHT31;65216;51.090;-115.352;2023-03-14T11:51:26;20.02;26.20
76751;SHT31;65216;51.090;-115.352;2023-03-14T11:54:03;20.02;26.19
76751;SHT31;65216;51.090;-115.352;2023-03-14T11:56:48;20.01;26.17
76751;SHT31;65216;51.090;-115.352;2023-03-14T12:08:51;20.01;26.02
76751;SHT31;65216;51.090;-115.352;2023-03-14T12:13:59;20.03;26.00
76751;SHT31;65216;51.090;-115.352;2023-03-14T12:16:32;20.02;25.99
76751;SHT31;65216;51.090;-115.352;2023-03-14T12:21:48;20.03;25.94
76751;SHT31;65216;51.090;-115.352;2023-03-14T12:24:22;20.03;25.93
76751;SHT31;65216;51.090;-115.352;2023-03-14T12:26:57;20.04;25.91
76751;SHT31;65216;51.090;-115.352;2023-03-14T12:29:28;20.05;25.91
76751;SHT31;65216;51.090;-115.352;2023-03-14T12:34:40;20.05;25.92
76751;SHT31;65216;51.090;-115.352;2023-03-14T12:40:14;20.05;25.89
76751;SHT31;65216;51.090;-115.352;2023-03-14T12:42:59;20.05;25.87
76751;SHT31;65216;51.090;-115.352;2023-03-14T12:45:30;20.05;25.88
76751;SHT31;65216;51.090;-115.352;2023-03-14T12:48:14;20.05;25.90
76751;SHT31;65216;51.090;-115.352;2023-03-14T12:50:56;20.04;25.90
76751;SHT31;65216;51.090;-115.352;2023-03-14T12:56:40;20.06;25.96
76751;SHT31;65216;51.090;-115.352;2023-03-14T13:00:13;20.05;26.00
76751;SHT31;65216;51.090;-115.352;2023-03-14T13:02:42;20.06;26.00
76751;SHT31;65216;51.090;-115.352;2023-03-14T13:05:23;20.05;26.04
76751;SHT31;65216;51.090;-115.352;2023-03-14T13:10:26;20.06;26.04
76751;SHT31;65216;51.090;-115.352;2023-03-14T13:15:59;20.06;26.11
76751;SHT31;65216;51.090;-115.352;2023-03-14T13:18:34;20.07;26.15
76751;SHT31;65216;51.090;-115.352;2023-03-14T13:21:10;20.07;26.13
76751;SHT31;65216;51.090;-115.352;2023-03-14T13:24:03;20.07;26.20
76751;SHT31;65216;51.090;-115.352;2023-03-14T13:26:44;20.06;26.20
76751;SHT31;65216;51.090;-115.352;2023-03-14T13:29:27;20.08;26.21
76751;SHT31;65216;51.090;-115.352;2023-03-14T13:32:02;20.07;26.20
76751;SHT31;65216;51.090;-115.352;2023-03-14T13:34:55;20.07;26.26
76751;SHT31;65216;51.090;-115.352;2023-03-14T13:37:29;20.07;26.30
76751;SHT31;65216;51.090;-115.352;2023-03-14T13:39:56;20.06;26.35
76751;SHT31;65216;51.090;-115.352;2023-03-14T13:42:26;20.05;26.38
76751;SHT31;65216;51.090;-115.352;2023-03-14T13:44:56;20.06;26.40
76751;SHT31;65216;51.090;-115.352;2023-03-14T13:47:24;20.06;26.40
76751;SHT31;65216;51.090;-115.352;2023-03-14T13:49:52;20.06;26.45
76751;SHT31;65216;51.090;-115.352;2023-03-14T13:55:04;20.04;26.50
76751;SHT31;65216;51.090;-115.352;2023-03-14T13:57:47;20.06;26.58
76751;SHT31;65216;51.090;-115.352;2023-03-14T14:00:24;20.06;26.60
76751;SHT31;65216;51.090;-115.352;2023-03-14T14:02:56;20.06;26.60
76751;SHT31;65216;51.090;-115.352;2023-03-14T14:05:26;20.06;26.64
76751;SHT31;65216;51.090;-115.352;2023-03-14T14:07:59;20.07;26.70
76751;SHT31;65216;51.090;-115.352;2023-03-14T14:10:29;20.08;26.71
76751;SHT31;65216;51.090;-115.352;2023-03-14T14:13:03;20.08;26.80
76751;SHT31;65216;51.090;-115.352;2023-03-14T14:15:43;20.08;26.84
76751;SHT31;65216;51.090;-115.352;2023-03-14T14:18:14;20.08;26.93
76751;SHT31;65216;51.090;-115.352;2023-03-14T14:20:47;20.08;26.96
76751;SHT31;65216;51.090;-115.352;2023-03-14T14:23:22;20.09;26.98
76751;SHT31;65216;51.090;-115.352;2023-03-14T14:25:57;20.09;26.97
76751;SHT31;65216;51.090;-115.352;2023-03-14T14:28:32;20.09;26.99
76751;SHT31;65216;51.090;-115.352;2023-03-14T14:31:20;20.10;27.00
76751;SHT31;65216;51.090;-115.352;2023-03-14T14:33:58;20.11;27.12
76751;SHT31;65216;51.090;-115.352;2023-03-14T14:36:32;20.11;27.25
76751;SHT31;65216;51.090;-115.352;2023-03-14T14:41:48;20.13;27.30
76751;SHT31;65216;51.090;-115.352;2023-03-14T14:44:30;20.14;27.34
76751;SHT31;65216;51.090;-115.352;2023-03-14T14:47:02;20.15;27.41
76751;SHT31;65216;51.090;-115.352;2023-03-14T14:49:33;20.15;27.41
76751;SHT31;65216;51.090;-115.352;2023-03-14T14:52:08;20.16;27.51
76751;SHT31;65216;51.090;-115.352;2023-03-14T14:57:27;20.19;27.60
76751;SHT31;65216;51.090;-115.352;2023-03-14T15:00:16;20.20;27.64
76751;SHT31;65216;51.090;-115.352;2023-03-14T15:02:48;20.22;27.65
76751;SHT31;65216;51.090;-115.352;2023-03-14T15:05:22;20.22;27.62
76751;SHT31;65216;51.090;-115.352;2023-03-14T15:08:07;20.25;27.70
76751;SHT31;65216;51.090;-115.352;2023-03-14T15:10:38;20.27;27.74
76751;SHT31;65216;51.090;-115.352;2023-03-14T15:13:05;20.29;27.81
76751;SHT31;65216;51.090;-115.352;2023-03-14T15:15:33;20.32;27.83
76751;SHT31;65216;51.090;-115.352;2023-03-14T15:18:00;20.34;27.89
76751;SHT31;65216;51.090;-115.352;2023-03-14T15:20:28;20.36;27.94
76751;SHT31;65216;51.090;-115.352;2023-03-14T15:22:55;20.37;27.94
76751;SHT31;65216;51.090;-115.352;2023-03-14T15:25:23;20.38;28.00
76751;SHT31;65216;51.090;-115.352;2023-03-14T15:27:53;20.40;27.99
76751;SHT31;65216;51.090;-115.352;2023-03-14T15:30:21;20.41;28.00
76751;SHT31;65216;51.090;-115.352;2023-03-14T15:32:53;20.42;28.00
76751;SHT31;65216;51.090;-115.352;2023-03-14T15:35:21;20.43;27.99
76751;SHT31;65216;51.090;-115.352;2023-03-14T15:37:48;20.45;28.01
76751;SHT31;65216;51.090;-115.352;2023-03-14T15:40:19;20.46;27.96
76751;SHT31;65216;51.090;-115.352;2023-03-14T15:42:50;20.48;27.92
76751;SHT31;65216;51.090;-115.352;2023-03-14T15:45:21;20.50;27.92
76751;SHT31;65216;51.090;-115.352;2023-03-14T15:47:48;20.52;27.93
76751;SHT31;65216;51.090;-115.352;2023-03-14T15:50:15;20.53;28.04
76751;SHT31;65216;51.090;-115.352;2023-03-14T15:52:44;20.53;28.15
76751;SHT31;65216;51.090;-115.352;2023-03-14T15:55:11;20.56;28.14
76751;SHT31;65216;51.090;-115.352;2023-03-14T15:57:40;20.56;27.89
76751;SHT31;65216;51.090;-115.352;2023-03-14T16:00:12;20.59;27.78
76751;SHT31;65216;51.090;-115.352;2023-03-14T16:02:47;20.58;27.71
76751;SHT31;65216;51.090;-115.352;2023-03-14T16:05:15;20.61;27.67
76751;SHT31;65216;51.090;-115.352;2023-03-14T16:07:48;20.62;27.67
76751;SHT31;65216;51.090;-115.352;2023-03-14T16:10:15;20.62;27.61
76751;SHT31;65216;51.090;-115.352;2023-03-14T16:12:43;20.62;27.63
76751;SHT31;65216;51.090;-115.352;2023-03-14T16:15:11;20.63;27.56
76751;SHT31;65216;51.090;-115.352;2023-03-14T16:17:38;20.65;27.52
76751;SHT31;65216;51.090;-115.352;2023-03-14T16:20:08;20.65;27.50
76751;SHT31;65216;51.090;-115.352;2023-03-14T16:22:36;20.66;27.47
76751;SHT31;65216;51.090;-115.352;2023-03-14T16:25:04;20.67;27.40
76751;SHT31;65216;51.090;-115.352;2023-03-14T16:27:33;20.68;27.38
76751;SHT31;65216;51.090;-115.352;2023-03-14T16:30:00;20.69;27.32
76751;SHT31;65216;51.090;-115.352;2023-03-14T16:32:33;20.70;27.29
76751;SHT31;65216;51.090;-115.352;2023-03-14T16:35:04;20.70;27.23
76751;SHT31;65216;51.090;-115.352;2023-03-14T16:37:32;20.72;27.22
76751;SHT31;65216;51.090;-115.352;2023-03-14T16:40:02;20.73;27.13
76751;SHT31;65216;51.090;-115.352;2023-03-14T16:42:30;20.74;27.08